METAR Data
IDs: Format: Raw Decoded Include TAF

Data at: 0109 UTC 25 Mar 2019

KICL 250055Z AUTO 02010KT 8SM BKN008 OVC013 08/07 A3009 RMK AO2
KICL 250035Z AUTO 02010KT 7SM BKN008 BKN013 OVC065 08/08 A3008 RMK AO2
KICL 250015Z AUTO 03011KT 8SM SCT008 OVC018 08/07 A3007 RMK AO2
KICL 242355Z AUTO 03012KT 8SM FEW008 BKN017 OVC021 08/08 A3007 RMK AO2
KICL 242335Z AUTO 02012KT 7SM BKN007 OVC021 08/08 A3006 RMK AO2
KICL 242315Z AUTO 02013KT 4SM BR BKN006 OVC021 08/08 A3005 RMK AO2
KICL 242255Z AUTO 02014KT 2SM BR OVC005 08/08 A3005 RMK AO2 P0001
KICL 242235Z AUTO 36014KT 2SM BR BKN006 OVC012 09/09 A3004 RMK AO2
KICL 242215Z AUTO 01010G16KT 1 1/2SM BR BKN007 OVC013 09/09 A3003 RMK AO2
KICL 242155Z AUTO 36009KT 2SM BR OVC012 10/09 A3003 RMK AO2
KICL 242135Z AUTO 36011KT 4SM BR OVC009 10/09 A3002 RMK AO2
KICL 242115Z AUTO 01008KT 10SM OVC009 10/09 A3002 RMK AO2
KICL 242055Z AUTO 36007KT 8SM OVC008 10/09 A3001 RMK AO2
KICL 242035Z AUTO 01006KT 7SM OVC009 10/09 A3000 RMK AO2
KICL 242015Z AUTO 35008KT 9SM OVC010 10/09 A3000 RMK AO2
KICL 241955Z AUTO 01005KT 10SM BKN010 OVC014 10/09 A3000 RMK AO2
KICL 241935Z AUTO 03005KT 10SM BKN008 BKN012 OVC017 10/09 A2999 RMK AO2
KICL 241915Z AUTO 04005KT 10SM SCT008 OVC013 10/09 A2999 RMK AO2
KICL 241855Z AUTO 02004KT 8SM SCT007 OVC012 10/09 A2998 RMK AO2
KICL 241835Z AUTO 04003KT 6SM BR BKN006 BKN010 OVC015 10/09 A2998 RMK AO2
KICL 241815Z AUTO 07004KT 4SM BR SCT004 BKN013 10/09 A2998 RMK AO2
KICL 241755Z AUTO 00000KT 3SM BR BKN005 BKN012 09/09 A2998 RMK AO2 P0001
KICL 241735Z AUTO 09004KT 1SM BR OVC005 09/09 A2998 RMK AO2
KICL 241715Z AUTO 06003KT 1SM BR OVC006 09/09 A2998 RMK AO2
KICL 241655Z AUTO 07004KT 6SM BR OVC006 09/09 A2998 RMK AO2
KICL 241635Z AUTO 00000KT 6SM BR OVC008 10/09 A2998 RMK AO2
KICL 241615Z AUTO 00000KT 7SM OVC008 10/09 A2998 RMK AO2
KICL 241555Z AUTO 11003KT 8SM OVC007 10/09 A2997 RMK AO2
KICL 241535Z AUTO 14004KT 6SM -DZ OVC007 09/09 A2997 RMK AO2
KICL 241515Z AUTO 00000KT 9SM OVC008 10/08 A2996 RMK AO2
KICL 241455Z AUTO 16004KT 10SM OVC009 10/08 A2996 RMK AO2
KICL 241435Z AUTO 17004KT 10SM OVC009 10/08 A2996 RMK AO2
KICL 241415Z AUTO 16005KT 10SM OVC009 09/08 A2996 RMK AO2
KICL 241355Z AUTO 14005KT 10SM OVC009 09/08 A2996 RMK AO2
KICL 241335Z AUTO 12004KT 10SM OVC011 09/08 A2996 RMK AO2
KICL 241315Z AUTO 14005KT 10SM OVC011 09/08 A2995 RMK AO2
KICL 241255Z AUTO 14006KT 10SM OVC011 09/08 A2995 RMK AO2
KICL 241235Z AUTO 14004KT 10SM OVC012 09/08 A2995 RMK AO2
KICL 241215Z AUTO 13007KT 100V160 10SM OVC011 09/08 A2995 RMK AO2
KICL 241155Z AUTO 16006KT 10SM OVC011 09/08 A2996 RMK AO2
KICL 241135Z AUTO 15004KT 10SM OVC012 09/08 A2995 RMK AO2
KICL 241115Z AUTO 13005KT 10SM OVC014 09/08 A2995 RMK AO2
KICL 241055Z AUTO 13008KT 10SM OVC015 09/08 A2995 RMK AO2
KICL 241035Z AUTO 16004G12KT 10SM OVC015 09/08 A2995 RMK AO2
KICL 241015Z AUTO 14009KT 9SM OVC016 09/08 A2995 RMK AO2
KICL 240955Z AUTO 15008KT 10SM OVC016 09/08 A2995 RMK AO2
KICL 240935Z AUTO 16007KT 8SM OVC015 09/08 A2996 RMK AO2
KICL 240915Z AUTO 15007KT 10SM OVC016 09/08 A2996 RMK AO2
KICL 240855Z AUTO 16007G12KT 10SM OVC018 10/08 A2996 RMK AO2
KICL 240835Z AUTO 16008KT 10SM OVC018 10/08 A2997 RMK AO2
KICL 240815Z AUTO 16007G13KT 10SM OVC018 10/08 A2998 RMK AO2
KICL 240755Z AUTO 15007KT 10SM OVC019 10/08 A2998 RMK AO2
KICL 240735Z AUTO 16007G12KT 10SM BKN022 OVC037 10/08 A2999 RMK AO2
KICL 240715Z AUTO 17007KT 10SM BKN019 OVC024 10/08 A2999 RMK AO2
KICL 240655Z AUTO 18011KT 10SM OVC017 10/08 A3000 RMK AO2
KICL 240635Z AUTO 16008G14KT 10SM OVC016 10/09 A3000 RMK AO2
KICL 240615Z AUTO 16009G17KT 120V180 10SM OVC015 10/09 A3000 RMK AO2
KICL 240555Z AUTO 16009G16KT 10SM OVC011 10/09 A3000 RMK AO2
KICL 240535Z AUTO 16007G12KT 10SM BKN010 OVC014 10/09 A3000 RMK AO2
KICL 240515Z AUTO 13007KT 10SM BKN014 OVC019 10/08 A3001 RMK AO2
KICL 240455Z AUTO 15008G14KT 10SM BKN017 OVC023 10/08 A3001 RMK AO2
KICL 240435Z AUTO 14010KT 10SM OVC024 10/07 A3002 RMK AO2
KICL 240415Z AUTO 13008G14KT 10SM OVC026 10/06 A3002 RMK AO2
KICL 240355Z AUTO 14006KT 10SM OVC025 10/06 A3002 RMK AO2
KICL 240335Z AUTO 14007G13KT 10SM OVC025 10/06 A3003 RMK AO2
KICL 240315Z AUTO 14008KT 10SM OVC028 10/06 A3003 RMK AO2
KICL 240255Z AUTO 17005G10KT 10SM OVC029 10/06 A3003 RMK AO2
KICL 240235Z AUTO 14006G12KT 10SM OVC029 10/06 A3003 RMK AO2
KICL 240215Z AUTO 13009G15KT 10SM OVC030 10/06 A3003 RMK AO2
KICL 240155Z AUTO 13008G13KT 10SM OVC030 10/06 A3002 RMK AO2
KICL 240135Z AUTO 12009G17KT 10SM OVC032 10/06 A3002 RMK AO2
KICL 240115Z AUTO 12010G15KT 10SM OVC033 10/06 A3002 RMK AO2
KICL 240055Z AUTO 11007G12KT 10SM OVC034 10/06 A3003 RMK AO2
KICL 240035Z AUTO 10009KT 10SM OVC036 10/06 A3003 RMK AO2
KICL 240015Z AUTO 11009G14KT 10SM OVC036 10/06 A3003 RMK AO2
KICL 232355Z AUTO 12009G16KT 10SM OVC037 10/06 A3004 RMK AO2
KICL 232335Z AUTO 10011KT 10SM OVC039 09/07 A3005 RMK AO2
KICL 232315Z AUTO 12006KT 10SM OVC042 09/07 A3005 RMK AO2
KICL 232255Z AUTO 10008KT 10SM OVC042 09/07 A3006 RMK AO2
KICL 232235Z AUTO 11007KT 10SM OVC040 09/07 A3006 RMK AO2
KICL 232215Z AUTO 11007KT 7SM OVC039 09/07 A3007 RMK AO2
KICL 232155Z AUTO 13005KT 4SM BR FEW026 FEW031 OVC038 09/07 A3008 RMK AO2 P0001
KICL 232135Z AUTO 13006KT 3SM HZ BKN027 BKN037 BKN047 10/07 A3007 RMK AO2
KICL 232115Z AUTO 12007KT 6SM HZ FEW039 SCT048 BKN055 10/06 A3006 RMK AO2
KICL 232055Z AUTO 13008KT 6SM HZ BKN050 OVC060 11/05 A3007 RMK AO2
KICL 232035Z AUTO VRB04KT 10SM BKN060 OVC070 12/04 A3007 RMK AO2
KICL 232015Z AUTO 15007KT 10SM BKN065 OVC075 12/03 A3008 RMK AO2
KICL 231955Z AUTO 15004KT 10SM OVC075 12/03 A3008 RMK AO2
KICL 231935Z AUTO VRB05G10KT 10SM BKN080 BKN090 12/02 A3007 RMK AO2
KICL 231915Z AUTO 12009KT 10SM BKN090 12/02 A3009 RMK AO2
KICL 231855Z AUTO 15010KT 10SM BKN100 11/02 A3011 RMK AO2
KICL 231835Z AUTO 14014KT 10SM FEW080 SCT095 12/02 A3011 RMK AO2
KICL 231815Z AUTO 14010G15KT 10SM BKN090 12/02 A3012 RMK AO2
KICL 231755Z AUTO 17007KT 10SM BKN090 BKN120 11/02 A3013 RMK AO2
KICL 231735Z AUTO 11006G11KT 10SM SCT100 11/03 A3012 RMK AO2
KICL 231715Z AUTO 10009KT 10SM FEW100 10/03 A3013 RMK AO2
KICL 231655Z AUTO 10012KT 10SM CLR 09/03 A3013 RMK AO2
KICL 231635Z AUTO 12006G11KT 10SM CLR 08/03 A3015 RMK AO2
KICL 231615Z AUTO 12005G11KT 10SM FEW060 FEW075 FEW120 08/02 A3016 RMK AO2
KICL 231555Z AUTO VRB03KT 10SM FEW060 07/02 A3017 RMK AO2
KICL 231535Z AUTO VRB04KT 7SM -DZ FEW030 SCT038 SCT055 07/02 A3016 RMK AO2
KICL 231515Z AUTO 17005G10KT 9SM FEW030 SCT039 BKN060 08/00 A3018 RMK AO2
KICL 231455Z AUTO 00000KT 10SM FEW060 SCT070 BKN085 08/M00 A3015 RMK AO2
KICL 231435Z AUTO 12006KT 10SM FEW090 FEW120 07/M00 A3014 RMK AO2
KICL 231415Z AUTO 13005KT 10SM FEW110 07/M00 A3015 RMK AO2
KICL 231355Z AUTO VRB06KT 10SM CLR 07/M00 A3016 RMK AO2
KICL 231335Z AUTO 12006KT 10SM CLR 07/M00 A3016 RMK AO2
KICL 231315Z AUTO 13005KT 10SM CLR 05/M01 A3016 RMK AO2